createdAt,value
2022-10-12T00:01:05.887Z,21.17
2022-10-12T00:03:33.865Z,21.05
2022-10-12T00:06:19.378Z,21.88
2022-10-12T00:08:47.122Z,17.25
2022-10-12T00:11:19.818Z,19.02
2022-10-12T00:13:46.597Z,15.90
2022-10-12T00:16:14.867Z,18.77
2022-10-12T00:18:41.643Z,17.50
2022-10-12T00:21:14.402Z,19.92
2022-10-12T00:23:42.662Z,20.63
2022-10-12T00:26:17.220Z,19.67
2022-10-12T00:28:44.251Z,16.48
2022-10-12T00:31:14.901Z,21.02
2022-10-12T00:33:42.268Z,20.23
2022-10-12T00:36:14.211Z,15.82
2022-10-12T00:38:40.908Z,13.80
2022-10-12T00:41:07.692Z,21.48
2022-10-12T00:43:39.021Z,13.75
2022-10-12T00:46:39.044Z,15.77
2022-10-12T00:49:23.086Z,15.52
2022-10-12T00:51:56.497Z,19.02
2022-10-12T00:54:29.825Z,14.60
2022-10-12T00:56:58.002Z,14.40
2022-10-12T00:59:32.460Z,17.10
2022-10-12T01:01:59.342Z,17.75
2022-10-12T01:04:26.412Z,13.52
2022-10-12T01:06:53.289Z,20.15
2022-10-12T01:09:21.378Z,13.02
2022-10-12T01:11:48.661Z,14.63
2022-10-12T01:14:16.449Z,15.60
2022-10-12T01:16:58.325Z,15.13
2022-10-12T01:19:27.902Z,12.18
2022-10-12T01:22:15.626Z,17.15
2022-10-12T01:24:48.239Z,17.48
2022-10-12T01:27:24.274Z,11.93
2022-10-12T01:30:17.632Z,14.73
2022-10-12T01:33:14.190Z,17.48
2022-10-12T01:36:25.134Z,10.02
2022-10-12T01:39:07.493Z,12.30
2022-10-12T01:41:44.808Z,12.23
2022-10-12T01:44:11.475Z,14.60
2022-10-12T01:46:42.761Z,11.10
2022-10-12T01:49:10.277Z,12.10
2022-10-12T01:52:08.622Z,13.02
2022-10-12T01:55:13.548Z,12.48
2022-10-12T01:57:55.188Z,11.57
2022-10-12T02:00:21.906Z,13.43
2022-10-12T02:03:16.124Z,11.55
2022-10-12T02:05:58.033Z,10.82
2022-10-12T02:08:37.789Z,11.77
2022-10-12T02:11:13.637Z,10.93
2022-10-12T02:13:47.219Z,12.55
2022-10-12T02:16:25.647Z,11.50
2022-10-12T02:18:55.924Z,10.77
2022-10-12T02:23:54.094Z,13.63
2022-10-12T02:26:21.958Z,9.43
2022-10-12T02:28:50.585Z,12.50
2022-10-12T02:31:37.701Z,15.52
2022-10-12T02:34:15.420Z,16.88
2022-10-12T02:36:51.181Z,9.48
2022-10-12T02:39:29.326Z,9.00
2022-10-12T02:42:01.566Z,11.18
2022-10-12T02:44:32.592Z,10.10
2022-10-12T02:47:00.171Z,11.32
2022-10-12T02:49:29.001Z,8.02
2022-10-12T02:51:56.653Z,9.05
2022-10-12T02:54:23.728Z,9.50
2022-10-12T02:56:50.458Z,9.10
2022-10-12T02:59:18.413Z,11.93
2022-10-12T03:01:45.109Z,10.75
2022-10-12T03:04:11.896Z,11.35
2022-10-12T03:06:38.570Z,10.32
2022-10-12T03:09:05.381Z,14.48
2022-10-12T03:11:32.377Z,9.32
2022-10-12T03:13:59.114Z,10.85
2022-10-12T03:16:26.012Z,11.32
2022-10-12T03:18:52.974Z,10.10
2022-10-12T03:21:19.597Z,10.00
2022-10-12T03:23:46.272Z,11.20
2022-10-12T03:26:12.907Z,11.18
2022-10-12T03:28:39.615Z,8.93
2022-10-12T03:31:06.495Z,10.30
2022-10-12T03:33:33.110Z,10.32
2022-10-12T03:35:59.799Z,11.57
2022-10-12T03:38:26.469Z,9.60
2022-10-12T03:40:53.139Z,11.43
2022-10-12T03:43:19.738Z,11.63
2022-10-12T03:45:46.563Z,12.43
2022-10-12T03:48:13.186Z,10.75
2022-10-12T03:50:40.252Z,10.85
2022-10-12T03:53:07.599Z,13.05
2022-10-12T03:55:34.409Z,10.43
2022-10-12T03:58:01.054Z,12.65
2022-10-12T04:00:28.486Z,11.38
2022-10-12T04:02:55.657Z,15.77
2022-10-12T04:05:22.594Z,11.20
2022-10-12T04:07:49.418Z,16.50
2022-10-12T04:10:16.136Z,12.57
2022-10-12T04:12:42.749Z,14.13
2022-10-12T04:15:10.105Z,16.13
2022-10-12T04:17:36.949Z,10.68
2022-10-12T04:20:04.676Z,12.52
2022-10-12T04:22:31.316Z,18.65
2022-10-12T04:24:57.994Z,9.55
2022-10-12T04:27:24.692Z,13.35
2022-10-12T04:29:51.486Z,11.55
2022-10-12T04:32:18.064Z,13.15
2022-10-12T04:34:44.683Z,10.02
2022-10-12T04:37:11.294Z,11.38
2022-10-12T04:39:37.908Z,11.07
2022-10-12T04:42:06.757Z,13.35
2022-10-12T04:44:33.892Z,8.45
2022-10-12T04:47:02.645Z,14.02
2022-10-12T04:49:29.246Z,9.82
2022-10-12T04:51:55.864Z,9.82
2022-10-12T04:54:22.481Z,11.85
2022-10-12T04:56:49.093Z,13.95
2022-10-12T04:59:15.804Z,12.80
2022-10-12T05:01:43.128Z,14.85
2022-10-12T05:04:09.884Z,10.25
2022-10-12T05:06:36.627Z,10.85
2022-10-12T05:09:03.453Z,12.15
2022-10-12T05:11:30.145Z,11.55
2022-10-12T05:13:56.831Z,13.68
2022-10-12T05:16:23.550Z,15.90
2022-10-12T05:18:50.166Z,12.85
2022-10-12T05:21:16.814Z,15.77
2022-10-12T05:23:43.404Z,11.80
2022-10-12T05:26:10.048Z,13.32
2022-10-12T05:28:40.783Z,11.85
2022-10-12T05:31:07.963Z,18.17
2022-10-12T05:33:34.625Z,12.15
2022-10-12T05:36:01.422Z,13.07
2022-10-12T05:38:28.221Z,10.35
2022-10-12T05:41:00.091Z,12.90
2022-10-12T05:43:27.441Z,11.93
2022-10-12T05:45:54.164Z,19.42
2022-10-12T05:48:20.766Z,10.75
2022-10-12T05:50:47.352Z,11.48
2022-10-12T05:53:14.005Z,14.20
2022-10-12T05:55:40.616Z,21.83
2022-10-12T05:58:07.220Z,17.02
2022-10-12T06:00:33.895Z,13.82
2022-10-12T06:03:00.592Z,19.08
2022-10-12T06:05:27.200Z,9.68
2022-10-12T06:07:53.804Z,17.02
2022-10-12T06:10:20.540Z,12.68
2022-10-12T06:12:47.336Z,13.93
2022-10-12T06:15:14.039Z,15.25
2022-10-12T06:17:40.706Z,12.93
2022-10-12T06:20:07.804Z,14.65
2022-10-12T06:22:34.389Z,22.52
2022-10-12T06:25:01.015Z,26.63
2022-10-12T06:27:27.686Z,37.50
2022-10-12T06:29:54.304Z,20.90
2022-10-12T06:32:21.456Z,22.67
2022-10-12T06:34:48.035Z,24.30
2022-10-12T06:37:37.027Z,20.50
2022-10-12T06:40:01.338Z,17.05
2022-10-12T06:42:27.962Z,19.20
2022-10-12T06:44:54.529Z,16.77
2022-10-12T06:47:21.212Z,20.67
2022-10-12T06:49:47.793Z,14.25
2022-10-12T06:52:14.599Z,16.45
2022-10-12T06:54:44.274Z,16.23
2022-10-12T06:57:10.950Z,14.35
2022-10-12T06:59:37.538Z,16.98
2022-10-12T07:02:04.209Z,19.83
2022-10-12T07:04:30.921Z,14.73
2022-10-12T07:06:57.624Z,23.05
2022-10-12T07:09:24.339Z,22.83
2022-10-12T07:11:50.977Z,16.15
2022-10-12T07:14:17.666Z,16.80
2022-10-12T07:16:44.286Z,17.25
2022-10-12T07:19:11.064Z,15.68
2022-10-12T07:21:37.682Z,24.20
2022-10-12T07:24:05.006Z,20.02
2022-10-12T07:26:31.828Z,23.52
2022-10-12T07:28:58.569Z,22.60
2022-10-12T07:31:25.266Z,20.05
2022-10-12T07:33:51.854Z,21.42
2022-10-12T07:36:21.681Z,18.55
2022-10-12T07:38:49.279Z,21.40
2022-10-12T07:41:16.368Z,19.20
2022-10-12T07:43:43.362Z,22.50
2022-10-12T07:46:10.604Z,26.38
2022-10-12T07:48:37.924Z,23.77
2022-10-12T07:51:05.849Z,19.23
2022-10-12T07:53:34.811Z,23.55
2022-10-12T07:56:03.300Z,28.88
2022-10-12T07:58:29.919Z,27.73
2022-10-12T08:00:56.689Z,21.48
2022-10-12T08:03:23.502Z,16.83
2022-10-12T08:05:50.110Z,19.10
2022-10-12T08:08:16.711Z,20.90
2022-10-12T08:10:43.396Z,20.17
2022-10-12T08:13:09.993Z,23.33
2022-10-12T08:15:36.598Z,21.13
2022-10-12T08:18:03.228Z,20.85
2022-10-12T08:20:29.847Z,16.05
2022-10-12T08:22:56.432Z,15.77
2022-10-12T08:25:23.197Z,17.27
2022-10-12T08:27:49.999Z,17.42
2022-10-12T08:30:16.952Z,19.00
2022-10-12T08:32:43.564Z,16.75
2022-10-12T08:35:10.179Z,18.75
2022-10-12T08:37:37.006Z,15.05
2022-10-12T08:40:04.180Z,18.45
2022-10-12T08:42:44.518Z,21.63
2022-10-12T08:45:46.013Z,14.15
2022-10-12T08:48:20.808Z,13.93
2022-10-12T08:50:54.185Z,12.23
2022-10-12T08:53:35.747Z,16.20
2022-10-12T08:56:02.388Z,14.18
2022-10-12T08:58:36.610Z,13.32
2022-10-12T09:01:39.123Z,13.88
2022-10-12T09:04:38.011Z,9.43
2022-10-12T09:07:12.557Z,12.60
2022-10-12T09:09:43.120Z,11.75
2022-10-12T09:12:21.044Z,10.38
2022-10-12T09:14:50.674Z,11.18
2022-10-12T09:17:38.379Z,13.20
2022-10-12T09:20:21.419Z,9.00
2022-10-12T09:23:02.035Z,10.60
2022-10-12T09:25:29.259Z,11.85
2022-10-12T09:28:17.201Z,7.85
2022-10-12T09:30:59.198Z,11.18
2022-10-12T09:33:37.859Z,7.93
2022-10-12T09:36:04.776Z,10.68
2022-10-12T09:38:31.551Z,5.40
2022-10-12T09:40:58.149Z,9.43
2022-10-12T09:43:25.015Z,13.32
2022-10-12T09:45:52.202Z,10.25
2022-10-12T09:48:24.635Z,8.07
2022-10-12T09:50:57.952Z,12.38
2022-10-12T09:53:32.363Z,12.48
2022-10-12T09:56:04.045Z,9.93
2022-10-12T09:58:40.038Z,8.02
2022-10-12T10:01:27.793Z,7.75
2022-10-12T10:04:14.021Z,7.18
2022-10-12T10:06:43.756Z,7.30
2022-10-12T10:09:29.389Z,14.00
2022-10-12T10:12:13.714Z,9.05
2022-10-12T10:14:43.787Z,11.15
2022-10-12T10:17:16.032Z,7.32
2022-10-12T10:19:49.530Z,9.68
2022-10-12T10:22:16.643Z,7.80
2022-10-12T10:24:43.649Z,5.82
2022-10-12T10:27:37.011Z,11.35
2022-10-12T10:30:29.992Z,11.82
2022-10-12T10:33:12.797Z,9.90
2022-10-12T10:35:39.500Z,7.45
2022-10-12T10:38:07.557Z,9.85
2022-10-12T10:40:34.480Z,6.68
2022-10-12T10:43:07.088Z,8.93
2022-10-12T10:48:17.945Z,6.40
2022-10-12T10:50:54.004Z,8.82
2022-10-12T10:53:26.008Z,13.73
2022-10-12T10:55:58.340Z,7.68
2022-10-12T10:58:34.086Z,11.07
2022-10-12T11:01:13.147Z,6.75
2022-10-12T11:03:48.377Z,8.43
2022-10-12T11:06:30.997Z,4.85
2022-10-12T11:09:06.213Z,11.77
2022-10-12T11:11:36.189Z,11.82
2022-10-12T11:14:16.940Z,6.53
2022-10-12T11:17:14.318Z,14.80
2022-10-12T11:19:45.220Z,9.55
2022-10-12T11:22:22.092Z,5.68
2022-10-12T11:25:02.823Z,10.02
2022-10-12T11:27:37.235Z,9.63
2022-10-12T11:30:13.981Z,8.80
2022-10-12T11:32:51.478Z,8.20
2022-10-12T11:35:31.703Z,7.57
2022-10-12T11:40:57.164Z,8.20
2022-10-12T11:43:24.051Z,11.27
2022-10-12T11:45:56.603Z,4.00
2022-10-12T11:48:29.416Z,5.97
2022-10-12T11:51:03.018Z,11.82
2022-10-12T11:54:11.700Z,10.77
2022-10-12T11:56:48.903Z,11.60
2022-10-12T11:59:42.004Z,9.57
2022-10-12T12:02:22.224Z,6.28
2022-10-12T12:07:43.671Z,6.95
2022-10-12T12:10:25.691Z,6.88
2022-10-12T12:13:20.435Z,7.60
2022-10-12T12:15:52.784Z,9.77
2022-10-12T12:18:34.784Z,6.57
2022-10-12T12:21:05.155Z,9.40
2022-10-12T12:23:50.864Z,10.00
2022-10-12T12:26:19.291Z,5.85
2022-10-12T12:28:47.799Z,7.30
2022-10-12T12:31:24.764Z,8.50
2022-10-12T12:34:04.034Z,7.75
2022-10-12T12:36:40.409Z,7.78
2022-10-12T12:39:20.945Z,5.82
2022-10-12T12:42:01.549Z,7.13
2022-10-12T12:47:46.807Z,8.48
2022-10-12T12:50:36.645Z,5.13
2022-10-12T12:53:08.438Z,11.02
2022-10-12T12:55:40.815Z,9.38
2022-10-12T12:58:48.960Z,9.20
2022-10-12T13:01:43.970Z,8.95
2022-10-12T13:04:49.335Z,7.57
2022-10-12T13:07:33.559Z,10.15
2022-10-12T13:10:24.466Z,5.95
2022-10-12T13:13:16.333Z,8.02
2022-10-12T13:16:32.595Z,7.93
2022-10-12T13:19:09.910Z,6.95
2022-10-12T13:21:42.245Z,5.07
2022-10-12T13:24:15.095Z,8.02
2022-10-12T13:26:46.088Z,6.38
2022-10-12T13:29:39.640Z,7.63
2022-10-12T13:32:19.308Z,6.30
2022-10-12T13:34:47.423Z,5.38
2022-10-12T13:37:15.956Z,4.88
2022-10-12T13:39:47.051Z,8.25
2022-10-12T13:42:18.005Z,8.07
2022-10-12T13:44:47.475Z,9.18
2022-10-12T13:47:43.194Z,9.55
2022-10-12T13:50:20.253Z,9.35
2022-10-12T13:52:54.337Z,6.95
2022-10-12T13:55:27.301Z,8.02
2022-10-12T13:57:53.938Z,6.90
2022-10-12T14:00:25.286Z,5.38
2022-10-12T14:02:57.790Z,9.02
2022-10-12T14:05:26.242Z,7.80
2022-10-12T14:07:56.124Z,5.47
2022-10-12T14:10:32.754Z,6.32
2022-10-12T14:15:53.888Z,8.27
2022-10-12T14:18:40.800Z,7.80
2022-10-12T14:21:26.826Z,8.25
2022-10-12T14:23:59.177Z,6.30
2022-10-12T14:26:51.861Z,9.07
2022-10-12T14:29:40.972Z,6.32
2022-10-12T14:32:10.610Z,8.27
2022-10-12T14:34:39.701Z,8.98
2022-10-12T14:37:09.219Z,7.50
2022-10-12T14:39:36.852Z,6.28
2022-10-12T14:42:18.025Z,9.32
2022-10-12T14:44:44.894Z,5.43
2022-10-12T14:47:26.170Z,8.10
2022-10-12T14:49:57.046Z,9.93
2022-10-12T14:52:28.701Z,10.75
2022-10-12T14:54:58.220Z,9.15
2022-10-12T14:57:28.654Z,8.57
2022-10-12T14:59:55.898Z,10.13
2022-10-12T15:02:28.540Z,6.30
2022-10-12T15:04:56.297Z,5.10
2022-10-12T15:07:41.652Z,6.05
2022-10-12T15:10:09.051Z,5.53
2022-10-12T15:12:36.157Z,12.38
2022-10-12T15:15:29.940Z,3.60
2022-10-12T15:17:58.113Z,9.85
2022-10-12T15:20:26.493Z,6.72
2022-10-12T15:22:53.207Z,6.90
2022-10-12T15:25:28.209Z,6.95
2022-10-12T15:27:54.964Z,8.10
2022-10-12T15:30:21.632Z,6.45
2022-10-12T15:32:48.365Z,5.35
2022-10-12T15:35:25.372Z,6.65
2022-10-12T15:37:52.177Z,6.35
2022-10-12T15:40:20.591Z,7.40
2022-10-12T15:42:47.456Z,7.05
2022-10-12T15:45:26.283Z,5.75
2022-10-12T15:48:18.347Z,9.48
2022-10-12T15:50:47.546Z,7.25
2022-10-12T15:53:24.779Z,5.53
2022-10-12T15:55:55.622Z,4.10
2022-10-12T15:58:22.416Z,9.13
2022-10-12T16:00:50.040Z,8.40
2022-10-12T16:03:25.243Z,10.32
2022-10-12T16:05:52.721Z,9.52
2022-10-12T16:08:19.331Z,7.47
2022-10-12T16:10:47.720Z,5.55
2022-10-12T16:13:15.234Z,9.45
2022-10-12T16:15:42.396Z,6.10
2022-10-12T16:18:10.097Z,9.55
2022-10-12T16:20:41.102Z,8.48
2022-10-12T16:23:13.297Z,7.45
2022-10-12T16:25:40.035Z,10.85
2022-10-12T16:28:06.687Z,10.50
2022-10-12T16:30:33.573Z,11.60
2022-10-12T16:33:00.146Z,10.35
2022-10-12T16:35:26.837Z,11.00
2022-10-12T16:37:53.453Z,16.33
2022-10-12T16:40:20.423Z,15.55
2022-10-12T16:42:54.204Z,16.92
2022-10-12T16:45:21.943Z,9.05
2022-10-12T16:47:51.559Z,9.00
2022-10-12T16:50:20.006Z,12.98
2022-10-12T16:52:46.724Z,19.50
2022-10-12T16:55:14.148Z,23.35
2022-10-12T16:57:41.377Z,15.30
2022-10-12T17:00:10.580Z,16.42
2022-10-12T17:02:37.719Z,11.73
2022-10-12T17:05:05.513Z,11.75
2022-10-12T17:07:32.528Z,14.32
2022-10-12T17:09:59.208Z,15.75
2022-10-12T17:12:26.426Z,12.27
2022-10-12T17:14:53.157Z,14.60
2022-10-12T17:17:20.522Z,11.20
2022-10-12T17:19:47.177Z,14.80
2022-10-12T17:22:15.033Z,13.80
2022-10-12T17:24:43.000Z,16.13
2022-10-12T17:27:12.347Z,12.00
2022-10-12T17:29:40.345Z,15.53
2022-10-12T17:32:08.058Z,21.00
2022-10-12T17:34:38.173Z,17.33
2022-10-12T17:37:05.501Z,14.10
2022-10-12T17:39:36.575Z,14.65
2022-10-12T17:42:05.250Z,15.82
2022-10-12T17:44:32.088Z,17.27
2022-10-12T17:46:58.870Z,19.25
2022-10-12T17:49:26.959Z,14.25
2022-10-12T17:51:53.837Z,20.33
2022-10-12T17:54:21.943Z,26.17
2022-10-12T17:56:48.624Z,15.82
2022-10-12T17:59:17.626Z,21.13
2022-10-12T18:01:44.870Z,18.30
2022-10-12T18:04:12.585Z,22.98
2022-10-12T18:06:39.950Z,20.20
2022-10-12T18:09:08.017Z,19.80
2022-10-12T18:11:35.547Z,23.98
2022-10-12T18:14:03.975Z,23.52
2022-10-12T18:16:33.237Z,20.70
2022-10-12T18:19:01.933Z,20.27
2022-10-12T18:21:30.574Z,25.73
2022-10-12T18:23:57.534Z,19.25
2022-10-12T18:26:24.975Z,18.38
2022-10-12T18:28:55.516Z,21.60
2022-10-12T18:31:24.615Z,20.15
2022-10-12T18:33:52.786Z,21.08
2022-10-12T18:36:20.148Z,14.75
2022-10-12T18:38:47.399Z,14.23
2022-10-12T18:41:16.798Z,20.08
2022-10-12T18:43:43.781Z,14.05
2022-10-12T18:46:13.086Z,15.93
2022-10-12T18:48:40.500Z,13.80
2022-10-12T18:51:21.908Z,16.10
2022-10-12T18:53:48.655Z,22.17
2022-10-12T18:56:16.012Z,15.25
2022-10-12T18:58:42.775Z,19.25
2022-10-12T19:01:16.130Z,15.80
2022-10-12T19:03:43.098Z,17.95
2022-10-12T19:06:16.494Z,13.32
2022-10-12T19:08:43.637Z,12.27
2022-10-12T19:11:12.147Z,13.73
2022-10-12T19:13:39.387Z,15.23
2022-10-12T19:16:10.849Z,11.43
2022-10-12T19:18:38.502Z,16.58
2022-10-12T19:21:07.768Z,14.38
2022-10-12T19:23:34.685Z,11.67
2022-10-12T19:26:06.220Z,11.55
2022-10-12T19:28:33.213Z,12.48
2022-10-12T19:31:00.747Z,9.45
2022-10-12T19:33:29.030Z,12.15
2022-10-12T19:35:56.133Z,11.20
2022-10-12T19:38:22.777Z,14.15
2022-10-12T19:40:51.029Z,8.10
2022-10-12T19:43:17.822Z,12.30
2022-10-12T19:45:44.411Z,14.50
2022-10-12T19:48:11.774Z,13.57
2022-10-12T19:50:38.759Z,13.55
2022-10-12T19:53:05.706Z,11.45
2022-10-12T19:55:38.985Z,10.10
2022-10-12T19:58:07.257Z,6.68
2022-10-12T20:00:35.638Z,11.65
2022-10-12T20:03:03.272Z,19.02
2022-10-12T20:05:29.927Z,14.90
2022-10-12T20:07:56.524Z,13.52
2022-10-12T20:10:23.187Z,13.23
2022-10-12T20:12:49.894Z,16.95
2022-10-12T20:15:16.619Z,15.25
2022-10-12T20:17:43.252Z,9.98
2022-10-12T20:20:10.336Z,11.18
2022-10-12T20:22:36.985Z,11.77
2022-10-12T20:25:09.347Z,10.45
2022-10-12T20:27:36.659Z,9.25
2022-10-12T20:30:04.373Z,18.13
2022-10-12T20:32:31.052Z,17.38
2022-10-12T20:34:57.738Z,15.23
2022-10-12T20:37:24.425Z,14.52
2022-10-12T20:39:52.125Z,11.55
2022-10-12T20:42:21.954Z,11.38
2022-10-12T20:44:49.404Z,15.07
2022-10-12T20:47:16.566Z,12.45
2022-10-12T20:49:43.788Z,16.92
2022-10-12T20:52:10.806Z,11.90
2022-10-12T20:54:37.834Z,10.60
2022-10-12T20:57:04.917Z,9.68
2022-10-12T20:59:34.502Z,9.30
2022-10-12T21:02:01.095Z,11.18
2022-10-12T21:04:31.066Z,16.63
2022-10-12T21:06:59.301Z,12.30
2022-10-12T21:09:26.073Z,10.40
2022-10-12T21:11:54.007Z,10.63
2022-10-12T21:14:21.300Z,9.30
2022-10-12T21:16:48.003Z,10.65
2022-10-12T21:19:16.307Z,12.57
2022-10-12T21:21:43.526Z,11.50
2022-10-12T21:24:10.751Z,10.90
2022-10-12T21:26:37.441Z,14.80
2022-10-12T21:29:04.836Z,9.80
2022-10-12T21:31:32.950Z,11.43
2022-10-12T21:34:01.858Z,11.68
2022-10-12T21:36:29.951Z,16.90
2022-10-12T21:38:56.800Z,12.35
2022-10-12T21:41:26.162Z,11.88
2022-10-12T21:43:53.564Z,12.98
2022-10-12T21:46:22.718Z,12.38
2022-10-12T21:48:50.213Z,10.55
2022-10-12T21:51:17.984Z,13.02
2022-10-12T21:53:44.708Z,12.45
2022-10-12T21:56:20.200Z,12.25
2022-10-12T21:58:47.762Z,16.80
2022-10-12T22:01:17.262Z,15.77
2022-10-12T22:03:44.848Z,15.13
2022-10-12T22:06:13.772Z,18.13
2022-10-12T22:08:40.598Z,15.35
2022-10-12T22:11:09.693Z,22.33
2022-10-12T22:13:37.121Z,16.75
2022-10-12T22:16:05.830Z,16.13
2022-10-12T22:18:32.733Z,18.92
2022-10-12T22:21:03.991Z,11.15
2022-10-12T22:23:30.998Z,14.98
2022-10-12T22:26:02.393Z,15.30
2022-10-12T22:28:30.022Z,13.45
2022-10-12T22:30:56.869Z,12.48
2022-10-12T22:33:24.046Z,9.88
2022-10-12T22:35:58.484Z,15.52
2022-10-12T22:38:26.432Z,17.70
2022-10-12T22:41:01.936Z,11.77
2022-10-12T22:43:30.129Z,11.88
2022-10-12T22:45:57.267Z,12.68
2022-10-12T22:48:24.706Z,10.20
2022-10-12T22:50:52.065Z,9.82
2022-10-12T22:53:20.502Z,16.02
2022-10-12T22:55:48.386Z,8.70
2022-10-12T22:58:15.534Z,9.65
2022-10-12T23:00:42.295Z,12.23
2022-10-12T23:03:09.049Z,11.73
2022-10-12T23:05:35.707Z,12.52
2022-10-12T23:08:02.327Z,11.95
2022-10-12T23:10:29.028Z,9.70
2022-10-12T23:12:55.652Z,14.18
2022-10-12T23:15:22.362Z,12.52
2022-10-12T23:17:48.952Z,9.82
2022-10-12T23:20:15.869Z,15.13
2022-10-12T23:22:42.490Z,12.73
2022-10-12T23:25:09.199Z,12.85
2022-10-12T23:27:35.787Z,18.77
2022-10-12T23:30:02.452Z,11.50
2022-10-12T23:32:30.413Z,9.75
2022-10-12T23:34:57.096Z,13.25
2022-10-12T23:37:23.746Z,12.70
2022-10-12T23:39:50.337Z,15.70
2022-10-12T23:42:17.363Z,16.67
2022-10-12T23:44:44.148Z,15.07
2022-10-12T23:47:10.761Z,13.82
2022-10-12T23:49:37.481Z,12.90
2022-10-12T23:52:04.211Z,12.38
2022-10-12T23:54:30.805Z,13.27
2022-10-12T23:56:57.406Z,12.75
2022-10-12T23:59:23.970Z,15.77
